Decoded Metar for GMAD (AL MASSIRA MC in MOROCCO) (IATA:N/A) | Meteo·Mobile Aviation Weather
aviador You're here:

GMAD Decoded Metar

AL MASSIRA MC in MOROCCO
Report Time2018-12-11 09:00:00
UTC Time2018-12-11 09:29:50
Flight Rules vfr VFR
Wind080° at 03 kt
W.Decomp.*RWY 10: 2.9 kt HW 0.9 kt LCW
W.Rank080° ranks 9
Current wind is below 080° avg. (5.3)
Visibility9999 m
Phenomena:N/A
Clouds:N/A
Expected CloudBase > 800 ft AGL from Temp-Dew spread
CeilingNone
Temp10°C (ISA -5)
Dew Point08°C (88% RH)
AAT8.5°C
QNH1025 hPa
Density Alt-558 ft
Elevation243 ft
Report Wrong Elevation
Raw Report
GMAD 110900Z 08003KT CAVOK 10/08 Q1025 NOSIG=

Extra information for GMAD:More info

Metar Taf Metar & Taf Last 4 Metars F.Rules Stats Wind Profile Meteogram Temp Stats Airport Information Weather charts Add Link Nearby VenuesMetar ALERT Operation Metar Decoded Social comments